Time;durP1;ratioP1;P1;durP2;ratioP2;P2;SDS_P1;SDS_P2;PMS_P1;PMS_P2;Temp;Humidity;BMP_temperature;BMP_pressure;BME280_temperature;BME280_humidity;BME280_pressure;Samples;Min_cycle;Max_cycle;Signal;HPM_P1;HPM_P2
2023/03/27 00:00:52;;;;;;;1.48;0.98;;;7.30;99.90;;;;;;4973942;28;20026;-67
2023/03/27 00:03:19;;;;;;;0.82;0.60;;;7.30;99.90;;;;;;4962485;28;20035;-67
2023/03/27 00:05:45;;;;;;;4.68;0.60;;;7.20;99.90;;;;;;4972311;28;20078;-67
2023/03/27 00:08:12;;;;;;;1.55;0.70;;;7.20;99.90;;;;;;4975391;28;20024;-67
2023/03/27 00:10:39;;;;;;;5.60;1.10;;;7.20;99.90;;;;;;4987159;28;20030;-67
2023/03/27 00:13:07;;;;;;;1.27;0.75;;;7.10;99.90;;;;;;4979257;28;20032;-67
2023/03/27 00:15:35;;;;;;;1.38;0.95;;;6.90;99.90;;;;;;4971714;28;20039;-67
2023/03/27 00:18:02;;;;;;;3.42;1.80;;;6.80;99.90;;;;;;4976372;28;20102;-67
2023/03/27 00:20:36;;;;;;;1.40;1.15;;;6.70;99.90;;;;;;4985525;28;20031;-67
2023/03/27 00:23:03;;;;;;;1.95;1.25;;;6.60;99.90;;;;;;4978691;28;20082;-67
2023/03/27 00:25:29;;;;;;;3.13;1.33;;;6.50;99.90;;;;;;4970530;28;20030;-67
2023/03/27 00:27:59;;;;;;;2.60;1.80;;;6.50;99.90;;;;;;4965680;28;20114;-67
2023/03/27 00:30:28;;;;;;;2.72;1.35;;;6.50;99.90;;;;;;4969139;28;20447;-68
2023/03/27 00:32:57;;;;;;;1.98;1.40;;;6.40;99.90;;;;;;4980305;28;20035;-67
2023/03/27 00:35:27;;;;;;;2.22;1.58;;;6.40;99.90;;;;;;4984848;28;20035;-68
2023/03/27 00:37:53;;;;;;;2.58;1.50;;;6.40;99.90;;;;;;4980403;28;20074;-67
2023/03/27 00:40:19;;;;;;;1.25;0.98;;;6.30;99.90;;;;;;4970344;28;20046;-67
2023/03/27 00:42:50;;;;;;;6.05;2.20;;;6.30;99.90;;;;;;4967428;28;20043;-67
2023/03/27 00:45:25;;;;;;;9.20;1.20;;;6.30;99.90;;;;;;4983264;28;20027;-67
2023/03/27 00:48:06;;;;;;;2.28;1.13;;;6.20;99.90;;;;;;4966161;28;20114;-67
2023/03/27 00:50:38;;;;;;;8.20;1.33;;;6.20;99.90;;;;;;4985768;28;20027;-67
2023/03/27 00:53:23;;;;;;;7.25;1.73;;;6.20;99.90;;;;;;4978047;28;20042;-67
2023/03/27 00:55:53;;;;;;;2.83;1.50;;;6.10;99.90;;;;;;4973199;28;20042;-67
2023/03/27 00:58:27;;;;;;;4.13;2.13;;;6.20;99.90;;;;;;4961618;28;20039;-67
2023/03/27 01:00:55;;;;;;;10.43;2.63;;;6.20;99.90;;;;;;4968407;28;20031;-67
2023/03/27 01:03:24;;;;;;;7.65;2.22;;;6.10;99.90;;;;;;4970689;28;20397;-67
2023/03/27 01:05:52;;;;;;;5.90;1.52;;;6.10;99.90;;;;;;4948590;28;20086;-66
2023/03/27 01:08:18;;;;;;;7.00;1.92;;;6.20;99.90;;;;;;4946029;28;20050;-67
2023/03/27 01:11:19;;;;;;;5.20;1.95;;;6.20;99.90;;;;;;4949446;28;20024;-67
2023/03/27 01:14:06;;;;;;;;;;;6.10;99.90;;;;;;4962649;28;20062;-67
2023/03/27 01:16:44;;;;;;;17.00;2.78;;;6.10;99.90;;;;;;4956153;28;19925;-67
2023/03/27 01:19:44;;;;;;;2.65;0.98;;;6.10;99.90;;;;;;4979690;28;20055;-67
2023/03/27 01:22:46;;;;;;;10.32;1.60;;;6.10;99.90;;;;;;4954934;28;20050;-66
2023/03/27 01:25:57;;;;;;;2.92;1.90;;;6.10;99.90;;;;;;4964650;28;20031;-67
2023/03/27 01:29:04;;;;;;;15.32;1.73;;;6.10;99.90;;;;;;4959952;28;20031;-67
2023/03/27 01:32:07;;;;;;;3.33;1.45;;;6.10;99.90;;;;;;4935703;28;20119;-67
2023/03/27 01:35:00;;;;;;;4.32;1.90;;;6.00;99.90;;;;;;4976800;28;20165;-66
2023/03/27 01:38:02;;;;;;;6.38;1.52;;;6.10;99.90;;;;;;4968351;28;20527;-67
2023/03/27 01:41:07;;;;;;;6.28;1.17;;;6.00;99.90;;;;;;4966916;28;20804;-66
2023/03/27 01:44:14;;;;;;;10.32;1.65;;;6.00;99.90;;;;;;4960177;28;20058;-67
2023/03/27 01:47:01;;;;;;;1.90;1.08;;;6.00;99.90;;;;;;4948069;28;20131;-67
2023/03/27 01:50:02;;;;;;;4.03;1.67;;;5.90;99.90;;;;;;4963253;28;20386;-67
2023/03/27 01:52:33;;;;;;;7.80;1.27;;;5.90;99.90;;;;;;4957018;28;20051;-67
2023/03/27 01:55:03;;;;;;;;;;;5.90;99.90;;;;;;4980049;28;20035;-67
2023/03/27 01:57:52;;;;;;;5.43;1.25;;;5.80;99.90;;;;;;4981809;28;19914;-67
2023/03/27 02:00:23;;;;;;;8.68;1.42;;;5.80;99.90;;;;;;4982653;28;20075;-67
2023/03/27 02:03:15;;;;;;;4.15;1.52;;;5.80;99.90;;;;;;4963690;28;20035;-67
2023/03/27 02:06:00;;;;;;;2.72;0.65;;;5.70;99.90;;;;;;4982867;28;20495;-67
2023/03/27 02:08:36;;;;;;;1.30;0.63;;;5.60;99.90;;;;;;4971452;28;20035;-67
2023/03/27 02:11:03;;;;;;;9.75;0.65;;;5.50;99.90;;;;;;4972040;28;20085;-66
2023/03/27 02:13:46;;;;;;;2.30;0.65;;;5.50;99.90;;;;;;4959645;28;20039;-66
2023/03/27 02:16:21;;;;;;;1.17;0.90;;;5.30;99.90;;;;;;4966872;28;20107;-66
2023/03/27 02:18:58;;;;;;;2.03;0.93;;;5.30;99.90;;;;;;4961758;28;20050;-66
2023/03/27 02:21:24;;;;;;;0.28;0.22;;;5.20;99.90;;;;;;4983239;28;20074;-66
2023/03/27 02:23:51;;;;;;;4.45;1.27;;;5.10;99.90;;;;;;4975026;28;20073;-66
2023/03/27 02:26:18;;;;;;;2.42;0.63;;;5.00;99.90;;;;;;4966498;28;20034;-67
2023/03/27 02:29:19;;;;;;;4.35;0.70;;;5.00;99.90;;;;;;4961743;28;20027;-67
2023/03/27 02:32:17;;;;;;;1.17;0.63;;;4.90;99.90;;;;;;4968212;28;20030;-66
2023/03/27 02:35:28;;;;;;;5.70;2.10;;;4.80;99.90;;;;;;4963120;28;20511;-67
2023/03/27 02:38:42;;;;;;;0.20;0.20;;;4.70;99.90;;;;;;4945664;28;20509;-67
2023/03/27 02:41:20;;;;;;;5.28;0.95;;;4.70;99.90;;;;;;4917087;29;20497;-67
2023/03/27 02:44:10;;;;;;;5.60;0.68;;;4.60;99.90;;;;;;4976968;28;20046;-67
2023/03/27 02:47:18;;;;;;;5.43;1.13;;;4.60;99.90;;;;;;4968168;28;20083;-68
2023/03/27 02:50:10;;;;;;;0.13;0.13;;;4.50;99.90;;;;;;4964627;28;20054;-67
2023/03/27 02:53:01;;;;;;;1.13;0.52;;;4.40;99.90;;;;;;4983432;28;20561;-67
2023/03/27 02:55:41;;;;;;;3.25;0.63;;;4.40;99.90;;;;;;4983792;28;20058;-67
2023/03/27 02:58:15;;;;;;;1.30;0.67;;;4.20;99.90;;;;;;4964951;28;20582;-67
2023/03/27 03:00:47;;;;;;;5.40;1.08;;;4.20;99.90;;;;;;4988703;28;20403;-68
2023/03/27 03:03:37;;;;;;;0.73;0.52;;;4.00;99.90;;;;;;4964623;28;20046;-67
2023/03/27 03:06:06;;;;;;;2.67;0.50;;;4.00;99.90;;;;;;4936781;29;20078;-68
2023/03/27 03:08:37;;;;;;;5.38;1.48;;;3.90;99.90;;;;;;4962677;28;20060;-67
2023/03/27 03:11:06;;;;;;;1.35;0.55;;;3.80;99.90;;;;;;4973872;28;20442;-67
2023/03/27 03:13:32;;;;;;;7.88;1.73;;;3.80;99.90;;;;;;4977300;28;20035;-67
2023/03/27 03:15:57;;;;;;;3.53;1.52;;;3.80;99.90;;;;;;4976791;28;20046;-67
2023/03/27 03:18:24;;;;;;;2.17;1.13;;;3.80;99.90;;;;;;4979987;23;20042;-65
2023/03/27 03:20:52;;;;;;;1.55;0.45;;;3.70;99.90;;;;;;4960178;28;20119;-66
2023/03/27 03:23:21;;;;;;;0.80;0.35;;;3.70;99.90;;;;;;4968268;28;20039;-65
2023/03/27 03:25:51;;;;;;;0.75;0.43;;;3.70;99.90;;;;;;4966657;28;20043;-66
2023/03/27 03:28:18;;;;;;;1.00;0.70;;;3.60;99.90;;;;;;4966466;28;20027;-65
2023/03/27 03:30:49;;;;;;;2.65;0.90;;;3.60;99.90;;;;;;4965398;28;20488;-66
2023/03/27 03:33:16;;;;;;;0.82;0.45;;;3.60;99.90;;;;;;4964848;28;20113;-66
2023/03/27 03:35:46;;;;;;;7.68;1.27;;;3.60;99.90;;;;;;4966807;28;20042;-65
2023/03/27 03:38:11;;;;;;;3.88;0.38;;;3.50;99.90;;;;;;4966557;28;20022;-66
2023/03/27 03:40:37;;;;;;;1.27;0.55;;;3.50;99.90;;;;;;4965234;28;20034;-66
2023/03/27 03:43:03;;;;;;;6.03;0.15;;;3.50;99.90;;;;;;4966282;28;20115;-66
2023/03/27 03:45:28;;;;;;;11.15;0.95;;;3.50;99.90;;;;;;4966323;28;20063;-66
2023/03/27 03:47:54;;;;;;;1.88;1.33;;;3.50;99.90;;;;;;4966471;28;20026;-66
2023/03/27 03:50:20;;;;;;;11.90;1.23;;;3.40;99.90;;;;;;4966049;28;20034;-65
2023/03/27 03:52:46;;;;;;;3.10;0.80;;;3.50;99.90;;;;;;4964417;28;20053;-66
2023/03/27 03:55:12;;;;;;;0.73;0.50;;;3.40;99.90;;;;;;4964573;28;20057;-66
2023/03/27 03:57:38;;;;;;;7.03;0.75;;;3.40;99.90;;;;;;4966091;28;20043;-65
2023/03/27 04:00:07;;;;;;;0.80;0.50;;;3.40;99.90;;;;;;4966156;28;20034;-66
2023/03/27 04:02:35;;;;;;;2.13;1.25;;;3.40;99.90;;;;;;4962390;28;20146;-66
2023/03/27 04:05:02;;;;;;;6.72;0.52;;;3.30;99.90;;;;;;4964453;28;20104;-66
2023/03/27 04:07:30;;;;;;;0.45;0.25;;;3.40;99.90;;;;;;4966129;28;20051;-66
2023/03/27 04:09:58;;;;;;;5.25;0.80;;;3.40;99.90;;;;;;4964678;28;20042;-66
2023/03/27 04:12:25;;;;;;;2.40;0.85;;;3.30;99.90;;;;;;4961768;28;20519;-65
2023/03/27 04:14:52;;;;;;;1.50;0.80;;;3.30;99.90;;;;;;4957234;28;20086;-66
2023/03/27 04:17:19;;;;;;;2.25;0.35;;;3.30;99.90;;;;;;4960922;28;20139;-66
2023/03/27 04:19:45;;;;;;;4.15;0.55;;;3.30;99.90;;;;;;4963063;28;20040;-64
2023/03/27 04:22:12;;;;;;;5.82;0.68;;;3.30;99.90;;;;;;4957387;28;20027;-65
2023/03/27 04:24:38;;;;;;;0.40;0.35;;;3.30;99.90;;;;;;4963933;28;20031;-65
2023/03/27 04:27:04;;;;;;;1.17;0.43;;;3.20;99.90;;;;;;4968263;28;20395;-65
2023/03/27 04:29:30;;;;;;;1.65;0.63;;;3.20;99.90;;;;;;4962631;28;20027;-64
2023/03/27 04:31:57;;;;;;;0.43;0.30;;;3.20;99.90;;;;;;4966292;28;20027;-65
2023/03/27 04:34:24;;;;;;;1.45;0.73;;;3.20;99.90;;;;;;4958379;28;20136;-65
2023/03/27 04:36:51;;;;;;;0.20;0.20;;;3.20;99.90;;;;;;4937237;29;20023;-65
2023/03/27 04:39:18;;;;;;;0.68;0.50;;;3.20;99.90;;;;;;4960562;28;20468;-65
2023/03/27 04:41:48;;;;;;;3.75;0.32;;;3.20;99.90;;;;;;4969703;28;20034;-65
2023/03/27 04:44:17;;;;;;;0.25;0.13;;;3.10;99.90;;;;;;4961552;28;20038;-65
2023/03/27 04:46:50;;;;;;;4.25;1.02;;;3.10;99.90;;;;;;4969625;28;20031;-64
2023/03/27 04:49:19;;;;;;;1.65;0.85;;;3.10;99.90;;;;;;4961788;28;20519;-65
2023/03/27 04:51:47;;;;;;;4.45;1.15;;;3.00;99.90;;;;;;4953447;28;20043;-65
2023/03/27 04:54:13;;;;;;;1.25;0.82;;;3.00;99.90;;;;;;4960349;28;20031;-65
2023/03/27 04:56:40;;;;;;;1.30;0.30;;;3.00;99.90;;;;;;4969284;28;20368;-65
2023/03/27 04:59:06;;;;;;;4.85;1.02;;;3.00;99.90;;;;;;4958729;28;20038;-65
2023/03/27 05:01:32;;;;;;;7.78;1.00;;;3.00;99.90;;;;;;4953977;28;20031;-66
2023/03/27 05:04:01;;;;;;;3.45;1.35;;;3.00;99.90;;;;;;4949781;28;20027;-65
2023/03/27 05:06:27;;;;;;;0.55;0.38;;;3.00;99.90;;;;;;4950301;28;20419;-66
2023/03/27 05:08:53;;;;;;;5.75;1.85;;;3.00;99.90;;;;;;4953941;28;20562;-66
2023/03/27 05:11:19;;;;;;;1.73;0.77;;;3.00;99.90;;;;;;4966443;28;20046;-66
2023/03/27 05:13:45;;;;;;;2.30;0.20;;;3.00;99.90;;;;;;4924171;28;20039;-66
2023/03/27 05:16:11;;;;;;;0.43;0.35;;;3.00;99.90;;;;;;4930725;28;20046;-66
2023/03/27 05:18:37;;;;;;;0.93;0.82;;;3.00;99.90;;;;;;4960548;28;20033;-66
2023/03/27 05:21:03;;;;;;;1.08;0.57;;;2.90;99.90;;;;;;4966001;28;20027;-68
2023/03/27 05:23:29;;;;;;;3.72;1.00;;;2.90;99.90;;;;;;4959176;28;20573;-66
2023/03/27 05:25:56;;;;;;;5.28;0.50;;;2.90;99.90;;;;;;4959095;28;20038;-66
2023/03/27 05:28:22;;;;;;;3.20;0.45;;;2.90;99.90;;;;;;4959790;28;20161;-67
2023/03/27 05:30:48;;;;;;;0.57;0.35;;;2.90;99.90;;;;;;4962890;28;20484;-67
2023/03/27 05:33:16;;;;;;;6.88;0.80;;;2.90;99.90;;;;;;4941926;28;20040;-67
2023/03/27 05:35:45;;;;;;;3.33;2.17;;;2.90;99.90;;;;;;4943675;28;20407;-68
2023/03/27 05:38:12;;;;;;;0.88;0.82;;;2.90;99.90;;;;;;4941568;28;20106;-67
2023/03/27 05:40:38;;;;;;;0.47;0.47;;;2.90;99.90;;;;;;4963881;28;20031;-66
2023/03/27 05:43:04;;;;;;;0.55;0.30;;;2.90;99.90;;;;;;4946800;28;20089;-65
2023/03/27 05:45:31;;;;;;;1.95;0.98;;;2.90;99.90;;;;;;4951368;28;20581;-66
2023/03/27 05:47:59;;;;;;;2.55;1.00;;;2.90;99.90;;;;;;4898476;28;20040;-65
2023/03/27 05:50:33;;;;;;;5.95;0.38;;;3.00;99.90;;;;;;4948032;28;20547;-66
2023/03/27 05:53:08;;;;;;;13.98;1.10;;;2.90;99.90;;;;;;4954907;28;20041;-65
2023/03/27 05:55:34;;;;;;;1.98;0.75;;;3.00;99.90;;;;;;4953237;28;20106;-66
2023/03/27 05:58:01;;;;;;;6.43;0.52;;;3.00;99.90;;;;;;4954341;28;20488;-67
2023/03/27 06:00:30;;;;;;;3.80;0.90;;;3.00;99.90;;;;;;4957369;28;20054;-65
2023/03/27 06:02:58;;;;;;;5.38;0.77;;;3.00;99.90;;;;;;4959583;28;20501;-65
2023/03/27 06:05:28;;;;;;;1.08;0.40;;;3.00;99.90;;;;;;4964609;28;20046;-66
2023/03/27 06:07:57;;;;;;;2.40;0.82;;;3.10;99.90;;;;;;4954103;28;20416;-66
2023/03/27 06:10:25;;;;;;;2.50;1.52;;;3.10;99.90;;;;;;4957780;28;20039;-66
2023/03/27 06:13:12;;;;;;;1.25;0.77;;;3.20;99.90;;;;;;4958765;28;20427;-66
2023/03/27 06:15:41;;;;;;;0.63;0.52;;;3.20;99.90;;;;;;4968858;28;20105;-67
2023/03/27 06:18:09;;;;;;;7.57;1.30;;;3.20;99.90;;;;;;4954218;28;20035;-64
2023/03/27 06:20:36;;;;;;;0.20;0.20;;;3.30;99.90;;;;;;4967473;28;20037;-68
2023/03/27 06:23:05;;;;;;;0.47;0.45;;;3.30;99.90;;;;;;4959473;28;20023;-66
2023/03/27 06:25:33;;;;;;;2.00;0.90;;;3.40;99.90;;;;;;4966548;28;20031;-66
2023/03/27 06:28:01;;;;;;;11.07;1.67;;;3.50;99.90;;;;;;4952521;28;20547;-66
2023/03/27 06:30:28;;;;;;;10.93;2.28;;;3.50;99.90;;;;;;4956125;28;20027;-66
2023/03/27 06:32:57;;;;;;;4.68;1.00;;;3.70;99.90;;;;;;4958376;28;20039;-67
2023/03/27 06:35:26;;;;;;;4.60;1.23;;;3.70;99.90;;;;;;4966601;28;20060;-65
2023/03/27 06:37:54;;;;;;;5.45;0.52;;;3.90;99.90;;;;;;4954639;28;20447;-66
2023/03/27 06:40:23;;;;;;;4.00;1.27;;;4.00;99.90;;;;;;4966016;28;20093;-65
2023/03/27 06:43:05;;;;;;;1.50;0.75;;;4.10;99.90;;;;;;4959433;28;20031;-66
2023/03/27 06:45:43;;;;;;;8.05;0.82;;;4.20;99.90;;;;;;4967464;28;20034;-67
2023/03/27 06:48:10;;;;;;;0.20;0.20;;;4.20;99.90;;;;;;4954881;28;20090;-66
2023/03/27 06:50:36;;;;;;;1.30;0.80;;;4.30;99.90;;;;;;4962910;28;20554;-66
2023/03/27 06:53:02;;;;;;;5.85;1.17;;;4.30;99.90;;;;;;4953513;28;20494;-66
2023/03/27 06:55:31;;;;;;;0.90;0.75;;;4.20;99.90;;;;;;4967315;28;20031;-66
2023/03/27 06:58:00;;;;;;;2.33;0.80;;;4.20;99.90;;;;;;4953700;28;20031;-66
2023/03/27 07:00:34;;;;;;;0.55;0.55;;;4.10;99.90;;;;;;4952634;28;20543;-67
2023/03/27 07:03:03;;;;;;;5.47;0.98;;;4.10;99.90;;;;;;4959323;28;20043;-67
2023/03/27 07:05:35;;;;;;;4.05;0.98;;;4.00;99.90;;;;;;4967141;28;20042;-67
2023/03/27 07:08:12;;;;;;;0.75;0.65;;;4.00;99.90;;;;;;4947311;28;20435;-66
2023/03/27 07:10:39;;;;;;;1.45;0.80;;;4.10;99.90;;;;;;4955747;28;20069;-67
2023/03/27 07:13:05;;;;;;;11.40;1.63;;;4.10;99.90;;;;;;4946282;28;20031;-67
2023/03/27 07:15:31;;;;;;;5.82;1.23;;;4.20;99.90;;;;;;4954543;28;20035;-67
2023/03/27 07:18:04;;;;;;;3.13;1.38;;;4.20;99.90;;;;;;4954870;28;20074;-67
2023/03/27 07:20:31;;;;;;;3.15;0.65;;;4.20;99.90;;;;;;4957257;28;20024;-67
2023/03/27 07:22:58;;;;;;;4.05;0.43;;;4.20;99.90;;;;;;4942757;28;20032;-67
2023/03/27 07:25:26;;;;;;;2.88;0.68;;;4.30;99.90;;;;;;4954916;28;20416;-67
2023/03/27 07:27:58;;;;;;;4.55;1.65;;;4.30;99.90;;;;;;4932812;28;20028;-67
2023/03/27 07:30:24;;;;;;;5.88;0.90;;;4.30;99.90;;;;;;4960102;28;20110;-67
2023/03/27 07:32:50;;;;;;;11.13;1.17;;;4.40;99.90;;;;;;4932844;28;20425;-67
2023/03/27 07:35:17;;;;;;;1.40;0.45;;;4.50;99.90;;;;;;4953927;28;20034;-67
2023/03/27 07:37:43;;;;;;;14.35;0.77;;;4.60;99.90;;;;;;4968034;28;20093;-67
2023/03/27 07:40:13;;;;;;;7.88;2.85;;;4.60;99.90;;;;;;4961118;28;20585;-67
2023/03/27 07:42:44;;;;;;;0.90;0.50;;;4.60;99.90;;;;;;4954358;28;20730;-67
2023/03/27 07:45:12;;;;;;;;;;;4.60;99.90;;;;;;4957909;28;20062;-66
2023/03/27 07:47:41;;;;;;;4.95;0.82;;;4.70;99.90;;;;;;4967262;28;20744;-67
2023/03/27 07:50:10;;;;;;;0.90;0.60;;;4.80;99.90;;;;;;4955863;28;20058;-66
2023/03/27 07:52:39;;;;;;;4.60;1.30;;;4.90;99.90;;;;;;4968808;28;20173;-67
2023/03/27 07:55:06;;;;;;;3.47;0.98;;;5.00;99.90;;;;;;4956157;28;20034;-66
2023/03/27 07:57:37;;;;;;;11.13;2.00;;;5.00;99.90;;;;;;4957858;28;20106;-67
2023/03/27 08:00:10;;;;;;;2.70;0.40;;;5.10;99.90;;;;;;4957853;28;20391;-66
2023/03/27 08:02:37;;;;;;;1.35;0.80;;;5.00;99.90;;;;;;4966986;28;20057;-67
2023/03/27 08:05:05;;;;;;;9.05;1.35;;;5.00;99.90;;;;;;4956002;28;20503;-68
2023/03/27 08:07:31;;;;;;;1.85;0.50;;;5.00;99.90;;;;;;4969099;28;20042;-67
2023/03/27 08:09:57;;;;;;;1.13;1.02;;;5.10;99.90;;;;;;4955634;28;20128;-67
2023/03/27 08:12:24;;;;;;;3.00;0.57;;;5.20;99.90;;;;;;4968050;28;20042;-67
2023/03/27 08:14:49;;;;;;;6.20;0.95;;;5.30;99.90;;;;;;4954272;28;20023;-66
2023/03/27 08:17:15;;;;;;;4.97;1.95;;;5.20;99.90;;;;;;4943042;28;20101;-66
2023/03/27 08:19:41;;;;;;;1.45;0.57;;;5.30;99.90;;;;;;4964359;28;20051;-66
2023/03/27 08:22:07;;;;;;;25.73;2.35;;;5.30;99.90;;;;;;4969190;28;20035;-67
2023/03/27 08:24:34;;;;;;;1.45;0.47;;;5.30;99.90;;;;;;4962415;28;20634;-66
2023/03/27 08:27:00;;;;;;;3.17;0.88;;;5.40;99.90;;;;;;4969630;28;20031;-68
2023/03/27 08:29:26;;;;;;;1.55;0.73;;;5.40;99.90;;;;;;4961801;28;20043;-68
2023/03/27 08:31:51;;;;;;;1.17;0.55;;;5.40;99.90;;;;;;4969914;28;20431;-66
2023/03/27 08:34:17;;;;;;;0.30;0.30;;;5.30;99.90;;;;;;4957387;28;20031;-65
2023/03/27 08:36:43;;;;;;;0.80;0.50;;;5.50;99.90;;;;;;4971080;28;20130;-66
2023/03/27 08:39:09;;;;;;;8.68;0.63;;;5.60;99.90;;;;;;4935769;29;20036;-67
2023/03/27 08:41:40;;;;;;;6.30;1.67;;;5.70;99.90;;;;;;4968722;28;20023;-66
2023/03/27 08:44:12;;;;;;;15.52;1.27;;;5.80;99.90;;;;;;4954607;28;20027;-67
2023/03/27 08:47:03;;;;;;;7.47;1.13;;;6.00;99.90;;;;;;4953208;28;20045;-67
2023/03/27 08:49:40;;;;;;;1.23;0.90;;;6.10;99.90;;;;;;4958341;28;20110;-65
2023/03/27 08:52:29;;;;;;;8.20;1.27;;;6.40;99.90;;;;;;4951646;29;20113;-65
2023/03/27 08:55:25;;;;;;;5.18;1.38;;;6.70;99.90;;;;;;4952764;28;20478;-65
2023/03/27 08:57:51;;;;;;;1.20;0.45;;;6.70;99.90;;;;;;4952739;28;20039;-66
2023/03/27 09:00:26;;;;;;;1.73;0.73;;;6.50;99.90;;;;;;4963208;28;20027;-67
2023/03/27 09:03:08;;;;;;;0.80;0.45;;;6.50;99.90;;;;;;4956662;28;20042;-66
2023/03/27 09:06:02;;;;;;;10.80;2.00;;;6.50;99.90;;;;;;4962217;28;20093;-66
2023/03/27 09:09:02;;;;;;;2.70;0.38;;;6.60;99.90;;;;;;4965678;28;20035;-66
2023/03/27 09:11:39;;;;;;;0.95;0.70;;;6.80;99.90;;;;;;4969468;28;20055;-67
2023/03/27 09:14:29;;;;;;;0.77;0.38;;;6.80;99.90;;;;;;4960288;28;20046;-73
2023/03/27 09:16:59;;;;;;;0.47;0.40;;;6.80;99.90;;;;;;4952084;23;20094;-64
2023/03/27 09:19:34;;;;;;;1.13;0.20;;;7.10;98.50;;;;;;4965254;28;20441;-67
2023/03/27 09:22:36;;;;;;;2.53;0.70;;;7.10;98.90;;;;;;4940659;29;20040;-68
2023/03/27 09:25:17;;;;;;;0.98;0.65;;;7.10;99.20;;;;;;4944573;29;20055;-68
2023/03/27 09:27:47;;;;;;;7.45;1.17;;;7.10;99.80;;;;;;4950509;29;20028;-69
2023/03/27 09:30:17;;;;;;;0.25;0.20;;;6.90;99.40;;;;;;4945449;29;20040;-68
2023/03/27 09:32:47;;;;;;;4.07;0.97;;;6.80;99.40;;;;;;4941169;29;20185;-59
2023/03/27 09:35:16;;;;;;;1.75;0.32;;;6.80;99.90;;;;;;4947803;29;20035;-68
2023/03/27 09:37:43;;;;;;;1.35;0.63;;;7.10;99.90;;;;;;4930331;29;20032;-68
2023/03/27 09:40:32;;;;;;;5.57;0.45;;;7.10;98.50;;;;;;4930896;29;20038;-69
2023/03/27 09:43:07;;;;;;;2.47;0.88;;;7.00;98.80;;;;;;4943291;28;20055;-70
2023/03/27 09:45:39;;;;;;;0.57;0.35;;;6.90;99.40;;;;;;4924231;29;20512;-68
2023/03/27 09:48:14;;;;;;;9.23;0.98;;;6.90;99.90;;;;;;4931027;29;20031;-68
2023/03/27 09:50:46;;;;;;;4.60;0.38;;;6.80;99.60;;;;;;4955193;28;20034;-69
2023/03/27 09:53:22;;;;;;;0.80;0.38;;;6.70;99.40;;;;;;4939502;29;20601;-69
2023/03/27 09:56:15;;;;;;;5.20;0.57;;;6.80;99.80;;;;;;4931494;29;20086;-70
2023/03/27 09:58:45;;;;;;;2.65;0.47;;;7.00;99.50;;;;;;4949004;28;20497;-67
2023/03/27 10:01:19;;;;;;;4.32;1.13;;;7.40;99.50;;;;;;4917418;29;20097;-70
2023/03/27 10:03:51;;;;;;;1.45;0.40;;;7.60;97.70;;;;;;4942061;28;20042;-69
2023/03/27 10:06:55;;;;;;;3.38;0.40;;;7.70;96.20;;;;;;4938368;29;20035;-68
2023/03/27 10:09:35;;;;;;;1.88;0.50;;;7.60;96.50;;;;;;4925098;29;20385;-68
2023/03/27 10:12:05;;;;;;;1.90;0.80;;;7.60;97.40;;;;;;4927204;29;20516;-72
2023/03/27 10:14:37;;;;;;;4.32;0.80;;;7.70;97.80;;;;;;4941570;29;20047;-68
2023/03/27 10:17:03;;;;;;;0.98;0.40;;;7.60;97.90;;;;;;4946755;29;20043;-68
2023/03/27 10:19:38;;;;;;;2.13;1.17;;;7.40;97.90;;;;;;4953833;28;20131;-68
2023/03/27 10:22:35;;;;;;;4.47;0.65;;;7.40;99.90;;;;;;4940964;29;20035;-70
2023/03/27 10:25:05;;;;;;;0.77;0.22;;;7.80;98.50;;;;;;4913005;29;20795;-71
2023/03/27 10:27:34;;;;;;;4.18;0.50;;;8.10;97.30;;;;;;4938005;29;20128;-70
2023/03/27 10:30:01;;;;;;;5.93;0.40;;;8.30;97.10;;;;;;4942277;29;20831;-69
2023/03/27 10:32:46;;;;;;;1.85;0.60;;;8.60;97.00;;;;;;4940979;29;20059;-68
2023/03/27 10:35:26;;;;;;;1.42;0.45;;;8.90;96.30;;;;;;4947960;29;20039;-71
2023/03/27 10:37:53;;;;;;;1.40;0.17;;;9.00;94.40;;;;;;4931977;29;20038;-71
2023/03/27 10:40:28;;;;;;;0.80;0.25;;;9.00;93.70;;;;;;4942966;29;20351;-70
2023/03/27 10:42:56;;;;;;;1.40;1.30;;;9.10;93.80;;;;;;4947208;28;20035;-69
2023/03/27 10:45:23;;;;;;;1.88;0.30;;;9.30;93.60;;;;;;4931076;29;20407;-71
2023/03/27 10:47:55;;;;;;;0.90;0.30;;;9.40;93.50;;;;;;4958640;28;20110;-70
2023/03/27 10:50:44;;;;;;;3.20;0.57;;;9.60;92.70;;;;;;4943524;29;20544;-71
2023/03/27 10:53:23;;;;;;;0.63;0.10;;;9.80;92.60;;;;;;4935201;29;20040;-71
2023/03/27 10:56:10;;;;;;;1.50;0.30;;;10.00;91.50;;;;;;4934314;29;20081;-71
2023/03/27 10:59:10;;;;;;;0.38;0.20;;;9.70;91.40;;;;;;4950772;29;20079;-71
2023/03/27 11:01:50;;;;;;;8.10;0.73;;;9.10;91.70;;;;;;4919113;29;20051;-71
2023/03/27 11:04:40;;;;;;;4.57;0.98;;;8.90;92.10;;;;;;4930619;29;20043;-71
2023/03/27 11:07:19;;;;;;;1.17;0.57;;;8.70;92.10;;;;;;4934797;29;20052;-71
2023/03/27 11:10:10;;;;;;;0.40;0.40;;;8.40;92.70;;;;;;4943859;29;20552;-71
2023/03/27 11:12:39;;;;;;;0.43;0.38;;;8.10;93.60;;;;;;4960223;28;20539;-70
2023/03/27 11:15:14;;;;;;;1.38;0.30;;;7.90;94.10;;;;;;4919691;29;20462;-70
2023/03/27 11:18:20;;;;;;;3.42;0.90;;;7.80;94.80;;;;;;4945407;29;20491;-70
2023/03/27 11:21:30;;;;;;;0.25;0.20;;;7.60;99.30;;;;;;4907630;28;20040;-70
2023/03/27 11:24:02;;;;;;;1.33;0.45;;;7.00;99.90;;;;;;4928631;29;20032;-70
2023/03/27 11:26:53;;;;;;;5.28;0.55;;;6.80;99.90;;;;;;4943253;29;20046;-70
2023/03/27 11:29:29;;;;;;;0.30;0.30;;;7.00;99.90;;;;;;4948935;29;20515;-70
2023/03/27 11:32:02;;;;;;;1.33;0.68;;;7.40;99.90;;;;;;4936109;29;20031;-70
2023/03/27 11:34:35;;;;;;;0.40;0.38;;;8.10;99.90;;;;;;4966232;28;20023;-68
2023/03/27 11:37:24;;;;;;;0.73;0.60;;;9.00;99.90;;;;;;4951606;28;20526;-72
2023/03/27 11:40:11;;;;;;;0.30;0.20;;;9.50;99.90;;;;;;4919263;29;20519;-71
2023/03/27 11:42:42;;;;;;;2.35;0.93;;;9.60;99.90;;;;;;4958815;28;20059;-70
2023/03/27 11:45:19;;;;;;;0.50;0.25;;;9.50;99.90;;;;;;4949056;28;20072;-71
2023/03/27 11:48:18;;;;;;;0.90;0.50;;;9.40;99.90;;;;;;4946037;29;20492;-71
2023/03/27 11:50:52;;;;;;;1.98;0.70;;;10.00;99.60;;;;;;4940616;28;20044;-71
2023/03/27 11:53:44;;;;;;;0.40;0.30;;;10.30;98.60;;;;;;4946515;28;20058;-71
2023/03/27 11:56:46;;;;;;;0.47;0.40;;;10.40;98.90;;;;;;4940524;29;20133;-70
2023/03/27 11:59:33;;;;;;;0.77;0.50;;;10.90;98.20;;;;;;4937813;29;20035;-71
2023/03/27 12:02:34;;;;;;;0.85;0.50;;;11.10;97.60;;;;;;4942963;29;20519;-70
2023/03/27 12:05:47;;;;;;;1.25;0.82;;;11.50;97.40;;;;;;4919456;29;20285;-71
2023/03/27 12:09:01;;;;;;;2.15;0.88;;;11.90;95.70;;;;;;4936304;29;20506;-71
2023/03/27 12:11:28;;;;;;;1.35;0.77;;;12.20;94.10;;;;;;4902877;29;20043;-71
2023/03/27 12:14:01;;;;;;;4.53;1.15;;;12.50;91.60;;;;;;4946594;29;20023;-70
2023/03/27 12:16:42;;;;;;;1.17;0.68;;;12.80;91.40;;;;;;4944878;29;20031;-71
2023/03/27 12:19:50;;;;;;;3.80;0.75;;;12.30;91.60;;;;;;4927022;29;20044;-70
2023/03/27 12:22:52;;;;;;;1.20;0.90;;;12.70;90.30;;;;;;4937328;28;20484;-70
2023/03/27 12:25:40;;;;;;;1.00;0.40;;;11.90;90.60;;;;;;4916245;29;20090;-70
2023/03/27 12:28:51;;;;;;;1.45;0.50;;;12.20;86.10;;;;;;4937141;29;20035;-71
2023/03/27 12:31:24;;;;;;;;;;;12.60;84.40;;;;;;4935497;29;20066;-71
2023/03/27 12:34:30;;;;;;;1.75;0.95;;;14.20;82.30;;;;;;4937820;29;19914;-71
2023/03/27 12:36:58;;;;;;;3.75;0.57;;;14.70;79.80;;;;;;4943840;29;20478;-71
2023/03/27 12:39:26;;;;;;;1.38;0.60;;;13.10;79.00;;;;;;4938160;28;20417;-71
2023/03/27 12:41:52;;;;;;;3.78;0.40;;;12.90;82.00;;;;;;4941026;29;20396;-70
2023/03/27 12:44:29;;;;;;;1.83;0.80;;;12.30;84.10;;;;;;4933968;29;20032;-70
2023/03/27 12:47:23;;;;;;;0.93;0.28;;;11.60;87.90;;;;;;4941020;29;20112;-71
2023/03/27 12:49:58;;;;;;;0.17;0.17;;;9.80;90.30;;;;;;4949093;29;20034;-71
2023/03/27 12:52:25;;;;;;;2.58;0.40;;;8.40;96.60;;;;;;4939193;29;20032;-71
2023/03/27 12:55:32;;;;;;;0.43;0.30;;;7.60;99.90;;;;;;4917408;29;20024;-72
2023/03/27 12:58:00;;;;;;;3.80;0.75;;;6.60;99.90;;;;;;4878836;29;20039;-72
2023/03/27 13:00:27;;;;;;;0.05;0.05;;;6.60;99.90;;;;;;4913509;29;20040;-72
2023/03/27 13:03:56;;;;;;;1.98;0.60;;;7.70;99.90;;;;;;4923837;29;20111;-71
2023/03/27 13:06:34;;;;;;;0.30;0.30;;;8.60;98.60;;;;;;4927376;29;20039;-72
2023/03/27 13:09:41;;;;;;;1.38;0.70;;;9.60;97.20;;;;;;4931177;29;20027;-72
2023/03/27 13:12:18;;;;;;;0.22;0.20;;;10.70;94.80;;;;;;4943835;28;20370;-72
2023/03/27 13:15:08;;;;;;;0.88;0.50;;;11.60;92.50;;;;;;4931718;29;20127;-71
2023/03/27 13:18:03;;;;;;;2.47;0.50;;;12.50;91.20;;;;;;4949577;28;20046;-72
2023/03/27 13:20:59;;;;;;;0.52;0.32;;;13.30;85.40;;;;;;4929292;29;20056;-71
2023/03/27 13:23:49;;;;;;;0.70;0.40;;;13.70;81.30;;;;;;4928751;29;20083;-74
2023/03/27 13:26:29;;;;;;;0.60;0.55;;;14.00;78.00;;;;;;4925460;29;20036;-71
2023/03/27 13:28:55;;;;;;;1.63;0.40;;;14.40;78.30;;;;;;4936084;29;20090;-71
2023/03/27 13:31:44;;;;;;;0.98;0.60;;;13.80;77.10;;;;;;4947736;29;20132;-71
2023/03/27 13:34:25;;;;;;;1.42;0.77;;;13.50;80.60;;;;;;4942499;28;20051;-70
2023/03/27 13:36:51;;;;;;;0.40;0.30;;;13.70;80.80;;;;;;4914301;29;20032;-69
2023/03/27 13:39:23;;;;;;;1.40;0.60;;;13.30;81.70;;;;;;4937577;28;20059;-67